sensor_id;sensor_type;location;lat;lon;timestamp;P1;durP1;ratioP1;P2;durP2;ratioP2
11078;SDS011;5592;49.234;7.268;2022-08-19T00:01:36;23.73;;;21.23;;
11078;SDS011;5592;49.234;7.268;2022-08-19T00:04:03;24.77;;;20.53;;
11078;SDS011;5592;49.234;7.268;2022-08-19T00:06:31;22.87;;;20.47;;
11078;SDS011;5592;49.234;7.268;2022-08-19T00:08:58;23.53;;;20.93;;
11078;SDS011;5592;49.234;7.268;2022-08-19T00:11:25;28.13;;;21.20;;
11078;SDS011;5592;49.234;7.268;2022-08-19T00:13:54;25.23;;;20.87;;
11078;SDS011;5592;49.234;7.268;2022-08-19T00:16:21;24.40;;;20.27;;
11078;SDS011;5592;49.234;7.268;2022-08-19T00:18:48;24.10;;;20.00;;
11078;SDS011;5592;49.234;7.268;2022-08-19T00:21:14;23.37;;;19.70;;
11078;SDS011;5592;49.234;7.268;2022-08-19T00:23:40;24.77;;;22.00;;
11078;SDS011;5592;49.234;7.268;2022-08-19T00:26:08;24.63;;;22.00;;
11078;SDS011;5592;49.234;7.268;2022-08-19T00:28:35;27.63;;;22.93;;
11078;SDS011;5592;49.234;7.268;2022-08-19T00:31:01;27.20;;;22.40;;
11078;SDS011;5592;49.234;7.268;2022-08-19T00:33:28;28.00;;;22.83;;
11078;SDS011;5592;49.234;7.268;2022-08-19T00:35:57;24.87;;;21.67;;
11078;SDS011;5592;49.234;7.268;2022-08-19T00:38:23;26.57;;;22.20;;
11078;SDS011;5592;49.234;7.268;2022-08-19T00:40:49;28.53;;;24.93;;
11078;SDS011;5592;49.234;7.268;2022-08-19T00:43:18;32.90;;;23.97;;
11078;SDS011;5592;49.234;7.268;2022-08-19T00:45:46;25.17;;;21.20;;
11078;SDS011;5592;49.234;7.268;2022-08-19T00:48:13;25.30;;;20.93;;
11078;SDS011;5592;49.234;7.268;2022-08-19T00:50:39;25.90;;;20.60;;
11078;SDS011;5592;49.234;7.268;2022-08-19T00:53:07;26.90;;;21.50;;
11078;SDS011;5592;49.234;7.268;2022-08-19T00:55:35;28.67;;;21.90;;
11078;SDS011;5592;49.234;7.268;2022-08-19T00:58:05;32.50;;;23.53;;
11078;SDS011;5592;49.234;7.268;2022-08-19T01:00:35;31.40;;;24.40;;
11078;SDS011;5592;49.234;7.268;2022-08-19T01:03:05;26.60;;;21.33;;
11078;SDS011;5592;49.234;7.268;2022-08-19T01:05:34;32.27;;;24.33;;
11078;SDS011;5592;49.234;7.268;2022-08-19T01:08:02;26.17;;;20.90;;
11078;SDS011;5592;49.234;7.268;2022-08-19T01:10:33;28.13;;;22.17;;
11078;SDS011;5592;49.234;7.268;2022-08-19T01:13:02;27.63;;;22.27;;
11078;SDS011;5592;49.234;7.268;2022-08-19T01:15:30;26.10;;;20.40;;
11078;SDS011;5592;49.234;7.268;2022-08-19T01:17:59;28.37;;;21.70;;
11078;SDS011;5592;49.234;7.268;2022-08-19T01:20:29;27.07;;;22.00;;
11078;SDS011;5592;49.234;7.268;2022-08-19T01:22:56;34.63;;;23.97;;
11078;SDS011;5592;49.234;7.268;2022-08-19T01:25:34;29.40;;;23.23;;
11078;SDS011;5592;49.234;7.268;2022-08-19T01:28:29;28.80;;;23.40;;
11078;SDS011;5592;49.234;7.268;2022-08-19T01:30:55;28.57;;;23.03;;
11078;SDS011;5592;49.234;7.268;2022-08-19T01:33:21;31.03;;;23.97;;
11078;SDS011;5592;49.234;7.268;2022-08-19T01:35:47;29.87;;;23.10;;
11078;SDS011;5592;49.234;7.268;2022-08-19T01:38:26;34.83;;;23.23;;
11078;SDS011;5592;49.234;7.268;2022-08-19T01:40:53;35.40;;;25.43;;
11078;SDS011;5592;49.234;7.268;2022-08-19T01:43:19;29.90;;;22.70;;
11078;SDS011;5592;49.234;7.268;2022-08-19T01:45:46;29.40;;;23.60;;
11078;SDS011;5592;49.234;7.268;2022-08-19T01:48:11;28.30;;;22.63;;
11078;SDS011;5592;49.234;7.268;2022-08-19T01:50:38;29.20;;;23.60;;
11078;SDS011;5592;49.234;7.268;2022-08-19T01:53:09;33.70;;;24.90;;
11078;SDS011;5592;49.234;7.268;2022-08-19T01:55:38;29.37;;;24.77;;
11078;SDS011;5592;49.234;7.268;2022-08-19T01:58:06;31.73;;;23.67;;
11078;SDS011;5592;49.234;7.268;2022-08-19T02:00:45;35.57;;;27.57;;
11078;SDS011;5592;49.234;7.268;2022-08-19T02:03:11;35.83;;;23.73;;
11078;SDS011;5592;49.234;7.268;2022-08-19T02:05:37;33.47;;;25.37;;
11078;SDS011;5592;49.234;7.268;2022-08-19T02:08:04;31.60;;;25.27;;
11078;SDS011;5592;49.234;7.268;2022-08-19T02:10:30;37.80;;;25.07;;
11078;SDS011;5592;49.234;7.268;2022-08-19T02:12:56;34.93;;;25.07;;
11078;SDS011;5592;49.234;7.268;2022-08-19T02:15:22;31.67;;;24.03;;
11078;SDS011;5592;49.234;7.268;2022-08-19T02:17:50;35.80;;;25.30;;
11078;SDS011;5592;49.234;7.268;2022-08-19T02:20:16;36.10;;;26.53;;
11078;SDS011;5592;49.234;7.268;2022-08-19T02:22:42;37.13;;;26.10;;
11078;SDS011;5592;49.234;7.268;2022-08-19T02:25:11;34.27;;;26.30;;
11078;SDS011;5592;49.234;7.268;2022-08-19T02:27:38;34.90;;;26.13;;
11078;SDS011;5592;49.234;7.268;2022-08-19T02:30:06;39.70;;;25.37;;
11078;SDS011;5592;49.234;7.268;2022-08-19T02:32:33;32.43;;;25.00;;
11078;SDS011;5592;49.234;7.268;2022-08-19T02:34:59;32.03;;;23.33;;
11078;SDS011;5592;49.234;7.268;2022-08-19T02:37:24;33.67;;;24.33;;
11078;SDS011;5592;49.234;7.268;2022-08-19T02:40:09;33.40;;;24.53;;
11078;SDS011;5592;49.234;7.268;2022-08-19T02:42:35;33.37;;;25.20;;
11078;SDS011;5592;49.234;7.268;2022-08-19T02:45:00;34.80;;;23.50;;
11078;SDS011;5592;49.234;7.268;2022-08-19T02:47:26;29.30;;;23.23;;
11078;SDS011;5592;49.234;7.268;2022-08-19T02:49:52;33.43;;;24.80;;
11078;SDS011;5592;49.234;7.268;2022-08-19T02:52:17;33.03;;;24.10;;
11078;SDS011;5592;49.234;7.268;2022-08-19T02:54:43;28.57;;;24.80;;
11078;SDS011;5592;49.234;7.268;2022-08-19T02:57:09;34.30;;;25.90;;
11078;SDS011;5592;49.234;7.268;2022-08-19T02:59:35;36.27;;;27.07;;
11078;SDS011;5592;49.234;7.268;2022-08-19T03:02:00;38.33;;;26.90;;
11078;SDS011;5592;49.234;7.268;2022-08-19T03:04:26;38.57;;;26.97;;
11078;SDS011;5592;49.234;7.268;2022-08-19T03:06:52;31.67;;;24.67;;
11078;SDS011;5592;49.234;7.268;2022-08-19T03:09:19;32.50;;;26.50;;
11078;SDS011;5592;49.234;7.268;2022-08-19T03:11:45;36.03;;;27.40;;
11078;SDS011;5592;49.234;7.268;2022-08-19T03:14:11;37.53;;;27.63;;
11078;SDS011;5592;49.234;7.268;2022-08-19T03:16:48;35.53;;;27.33;;
11078;SDS011;5592;49.234;7.268;2022-08-19T03:19:16;36.50;;;26.67;;
11078;SDS011;5592;49.234;7.268;2022-08-19T03:21:43;34.03;;;26.80;;
11078;SDS011;5592;49.234;7.268;2022-08-19T03:24:10;42.13;;;27.50;;
11078;SDS011;5592;49.234;7.268;2022-08-19T03:26:40;39.30;;;28.37;;
11078;SDS011;5592;49.234;7.268;2022-08-19T03:29:07;38.03;;;28.53;;
11078;SDS011;5592;49.234;7.268;2022-08-19T03:31:35;40.53;;;27.83;;
11078;SDS011;5592;49.234;7.268;2022-08-19T03:34:02;42.77;;;28.57;;
11078;SDS011;5592;49.234;7.268;2022-08-19T03:36:27;40.67;;;27.60;;
11078;SDS011;5592;49.234;7.268;2022-08-19T03:38:55;37.53;;;27.93;;
11078;SDS011;5592;49.234;7.268;2022-08-19T03:41:30;37.80;;;26.40;;
11078;SDS011;5592;49.234;7.268;2022-08-19T03:43:58;44.70;;;28.07;;
11078;SDS011;5592;49.234;7.268;2022-08-19T03:46:28;40.13;;;27.67;;
11078;SDS011;5592;49.234;7.268;2022-08-19T03:48:55;36.23;;;26.07;;
11078;SDS011;5592;49.234;7.268;2022-08-19T03:51:27;36.60;;;27.70;;
11078;SDS011;5592;49.234;7.268;2022-08-19T03:53:59;39.53;;;28.77;;
11078;SDS011;5592;49.234;7.268;2022-08-19T03:56:27;41.10;;;28.63;;
11078;SDS011;5592;49.234;7.268;2022-08-19T03:58:53;43.90;;;28.83;;
11078;SDS011;5592;49.234;7.268;2022-08-19T04:01:21;40.30;;;28.20;;
11078;SDS011;5592;49.234;7.268;2022-08-19T04:03:48;44.50;;;29.67;;
11078;SDS011;5592;49.234;7.268;2022-08-19T04:06:21;46.80;;;27.53;;
11078;SDS011;5592;49.234;7.268;2022-08-19T04:08:49;49.23;;;31.00;;
11078;SDS011;5592;49.234;7.268;2022-08-19T04:11:19;46.70;;;31.17;;
11078;SDS011;5592;49.234;7.268;2022-08-19T04:13:56;47.30;;;30.20;;
11078;SDS011;5592;49.234;7.268;2022-08-19T04:16:23;48.03;;;31.80;;
11078;SDS011;5592;49.234;7.268;2022-08-19T04:18:50;44.63;;;30.33;;
11078;SDS011;5592;49.234;7.268;2022-08-19T04:21:20;43.97;;;30.47;;
11078;SDS011;5592;49.234;7.268;2022-08-19T04:23:48;42.93;;;30.10;;
11078;SDS011;5592;49.234;7.268;2022-08-19T04:26:14;42.07;;;28.90;;
11078;SDS011;5592;49.234;7.268;2022-08-19T04:28:45;42.13;;;29.00;;
11078;SDS011;5592;49.234;7.268;2022-08-19T04:31:15;49.30;;;30.30;;
11078;SDS011;5592;49.234;7.268;2022-08-19T04:33:43;49.87;;;30.27;;
11078;SDS011;5592;49.234;7.268;2022-08-19T04:36:19;49.20;;;31.83;;
11078;SDS011;5592;49.234;7.268;2022-08-19T04:38:47;52.27;;;30.73;;
11078;SDS011;5592;49.234;7.268;2022-08-19T04:41:13;45.20;;;30.17;;
11078;SDS011;5592;49.234;7.268;2022-08-19T04:43:58;46.67;;;31.47;;
11078;SDS011;5592;49.234;7.268;2022-08-19T04:46:25;47.30;;;29.73;;
11078;SDS011;5592;49.234;7.268;2022-08-19T04:48:51;46.93;;;29.30;;
11078;SDS011;5592;49.234;7.268;2022-08-19T04:51:17;48.77;;;31.27;;
11078;SDS011;5592;49.234;7.268;2022-08-19T04:53:43;43.10;;;30.10;;
11078;SDS011;5592;49.234;7.268;2022-08-19T04:56:12;46.40;;;30.37;;
11078;SDS011;5592;49.234;7.268;2022-08-19T04:58:40;44.77;;;31.20;;
11078;SDS011;5592;49.234;7.268;2022-08-19T05:01:08;50.63;;;31.90;;
11078;SDS011;5592;49.234;7.268;2022-08-19T05:03:36;55.70;;;31.80;;
11078;SDS011;5592;49.234;7.268;2022-08-19T05:06:13;51.50;;;31.17;;
11078;SDS011;5592;49.234;7.268;2022-08-19T05:08:40;45.37;;;29.97;;
11078;SDS011;5592;49.234;7.268;2022-08-19T05:13:50;47.50;;;31.70;;
11078;SDS011;5592;49.234;7.268;2022-08-19T05:16:18;49.93;;;30.67;;
11078;SDS011;5592;49.234;7.268;2022-08-19T05:18:45;53.77;;;31.50;;
11078;SDS011;5592;49.234;7.268;2022-08-19T05:24:19;53.30;;;33.10;;
11078;SDS011;5592;49.234;7.268;2022-08-19T05:26:47;48.37;;;31.33;;
11078;SDS011;5592;49.234;7.268;2022-08-19T05:29:15;47.73;;;31.47;;
11078;SDS011;5592;49.234;7.268;2022-08-19T05:31:43;46.87;;;32.50;;
11078;SDS011;5592;49.234;7.268;2022-08-19T05:34:09;41.40;;;31.70;;
11078;SDS011;5592;49.234;7.268;2022-08-19T05:36:37;43.50;;;30.07;;
11078;SDS011;5592;49.234;7.268;2022-08-19T05:39:05;38.00;;;28.60;;
11078;SDS011;5592;49.234;7.268;2022-08-19T05:41:31;38.03;;;26.73;;
11078;SDS011;5592;49.234;7.268;2022-08-19T05:43:58;33.73;;;26.63;;
11078;SDS011;5592;49.234;7.268;2022-08-19T05:46:26;37.77;;;27.93;;
11078;SDS011;5592;49.234;7.268;2022-08-19T05:48:52;32.50;;;24.60;;
11078;SDS011;5592;49.234;7.268;2022-08-19T05:51:18;32.50;;;25.33;;
11078;SDS011;5592;49.234;7.268;2022-08-19T05:53:44;29.13;;;22.43;;
11078;SDS011;5592;49.234;7.268;2022-08-19T05:56:13;28.33;;;23.50;;
11078;SDS011;5592;49.234;7.268;2022-08-19T05:58:41;28.07;;;22.23;;
11078;SDS011;5592;49.234;7.268;2022-08-19T06:01:10;26.17;;;22.00;;
11078;SDS011;5592;49.234;7.268;2022-08-19T06:03:40;25.47;;;21.73;;
11078;SDS011;5592;49.234;7.268;2022-08-19T06:06:07;28.93;;;21.50;;
11078;SDS011;5592;49.234;7.268;2022-08-19T06:08:34;24.53;;;20.90;;
11078;SDS011;5592;49.234;7.268;2022-08-19T06:14:09;24.80;;;20.97;;
11078;SDS011;5592;49.234;7.268;2022-08-19T06:16:37;21.83;;;18.97;;
11078;SDS011;5592;49.234;7.268;2022-08-19T06:19:05;22.70;;;18.43;;
11078;SDS011;5592;49.234;7.268;2022-08-19T06:21:33;22.50;;;18.53;;
11078;SDS011;5592;49.234;7.268;2022-08-19T06:24:02;20.40;;;18.23;;
11078;SDS011;5592;49.234;7.268;2022-08-19T06:26:29;19.30;;;17.40;;
11078;SDS011;5592;49.234;7.268;2022-08-19T06:28:56;22.67;;;17.30;;
11078;SDS011;5592;49.234;7.268;2022-08-19T06:31:23;18.57;;;16.20;;
11078;SDS011;5592;49.234;7.268;2022-08-19T06:33:51;19.40;;;16.70;;
11078;SDS011;5592;49.234;7.268;2022-08-19T06:36:18;16.47;;;14.57;;
11078;SDS011;5592;49.234;7.268;2022-08-19T06:39:09;18.27;;;16.43;;
11078;SDS011;5592;49.234;7.268;2022-08-19T06:41:39;18.23;;;14.87;;
11078;SDS011;5592;49.234;7.268;2022-08-19T06:44:07;20.40;;;14.60;;
11078;SDS011;5592;49.234;7.268;2022-08-19T06:46:32;18.13;;;14.33;;
11078;SDS011;5592;49.234;7.268;2022-08-19T06:48:58;17.90;;;14.47;;
11078;SDS011;5592;49.234;7.268;2022-08-19T06:51:24;15.70;;;14.10;;
11078;SDS011;5592;49.234;7.268;2022-08-19T06:53:52;16.13;;;14.43;;
11078;SDS011;5592;49.234;7.268;2022-08-19T06:56:20;16.47;;;13.87;;
11078;SDS011;5592;49.234;7.268;2022-08-19T06:58:58;14.60;;;13.10;;
11078;SDS011;5592;49.234;7.268;2022-08-19T07:01:25;14.17;;;12.70;;
11078;SDS011;5592;49.234;7.268;2022-08-19T07:03:51;13.50;;;12.10;;
11078;SDS011;5592;49.234;7.268;2022-08-19T07:06:17;13.97;;;12.50;;
11078;SDS011;5592;49.234;7.268;2022-08-19T07:08:45;14.83;;;12.83;;
11078;SDS011;5592;49.234;7.268;2022-08-19T07:11:14;18.00;;;11.50;;
11078;SDS011;5592;49.234;7.268;2022-08-19T07:13:42;13.00;;;11.37;;
11078;SDS011;5592;49.234;7.268;2022-08-19T07:16:12;12.63;;;10.93;;
11078;SDS011;5592;49.234;7.268;2022-08-19T07:18:39;11.23;;;10.23;;
11078;SDS011;5592;49.234;7.268;2022-08-19T07:21:07;15.07;;;9.87;;
11078;SDS011;5592;49.234;7.268;2022-08-19T07:23:53;11.83;;;10.60;;
11078;SDS011;5592;49.234;7.268;2022-08-19T07:26:24;10.83;;;9.77;;
11078;SDS011;5592;49.234;7.268;2022-08-19T07:28:53;10.10;;;9.10;;
11078;SDS011;5592;49.234;7.268;2022-08-19T07:31:20;11.00;;;9.87;;
11078;SDS011;5592;49.234;7.268;2022-08-19T07:33:48;11.20;;;10.20;;
11078;SDS011;5592;49.234;7.268;2022-08-19T07:36:16;15.53;;;9.60;;
11078;SDS011;5592;49.234;7.268;2022-08-19T07:38:45;11.70;;;9.70;;
11078;SDS011;5592;49.234;7.268;2022-08-19T07:41:14;11.27;;;9.57;;
11078;SDS011;5592;49.234;7.268;2022-08-19T07:43:42;15.17;;;9.70;;
11078;SDS011;5592;49.234;7.268;2022-08-19T07:46:09;11.20;;;10.17;;
11078;SDS011;5592;49.234;7.268;2022-08-19T07:48:35;12.10;;;11.00;;
11078;SDS011;5592;49.234;7.268;2022-08-19T07:51:03;10.80;;;9.80;;
11078;SDS011;5592;49.234;7.268;2022-08-19T07:53:31;10.10;;;9.30;;
11078;SDS011;5592;49.234;7.268;2022-08-19T07:55:58;10.50;;;9.60;;
11078;SDS011;5592;49.234;7.268;2022-08-19T07:58:30;14.20;;;11.20;;
11078;SDS011;5592;49.234;7.268;2022-08-19T08:01:00;11.30;;;10.20;;
11078;SDS011;5592;49.234;7.268;2022-08-19T08:03:29;15.07;;;11.00;;
11078;SDS011;5592;49.234;7.268;2022-08-19T08:06:14;11.60;;;9.50;;
11078;SDS011;5592;49.234;7.268;2022-08-19T08:08:58;12.27;;;10.40;;
11078;SDS011;5592;49.234;7.268;2022-08-19T08:11:47;15.20;;;12.47;;
11078;SDS011;5592;49.234;7.268;2022-08-19T08:14:19;13.50;;;10.80;;
11078;SDS011;5592;49.234;7.268;2022-08-19T08:16:47;15.90;;;9.83;;
11078;SDS011;5592;49.234;7.268;2022-08-19T08:19:15;14.53;;;10.37;;
11078;SDS011;5592;49.234;7.268;2022-08-19T08:21:43;15.63;;;11.90;;
11078;SDS011;5592;49.234;7.268;2022-08-19T08:24:09;10.33;;;9.43;;
11078;SDS011;5592;49.234;7.268;2022-08-19T08:26:35;12.07;;;10.40;;
11078;SDS011;5592;49.234;7.268;2022-08-19T08:29:01;12.93;;;11.30;;
11078;SDS011;5592;49.234;7.268;2022-08-19T08:31:27;10.93;;;9.77;;
11078;SDS011;5592;49.234;7.268;2022-08-19T08:33:54;10.13;;;9.23;;
11078;SDS011;5592;49.234;7.268;2022-08-19T08:36:19;9.73;;;8.50;;
11078;SDS011;5592;49.234;7.268;2022-08-19T08:38:45;10.13;;;9.23;;
11078;SDS011;5592;49.234;7.268;2022-08-19T08:41:22;9.67;;;8.77;;
11078;SDS011;5592;49.234;7.268;2022-08-19T08:44:23;10.55;;;9.57;;
11078;SDS011;5592;49.234;7.268;2022-08-19T08:47:04;9.20;;;8.50;;
11078;SDS011;5592;49.234;7.268;2022-08-19T08:52:18;11.10;;;9.13;;
11078;SDS011;5592;49.234;7.268;2022-08-19T08:54:48;9.80;;;7.43;;
11078;SDS011;5592;49.234;7.268;2022-08-19T08:57:23;9.40;;;8.50;;
11078;SDS011;5592;49.234;7.268;2022-08-19T08:59:53;8.93;;;8.13;;
11078;SDS011;5592;49.234;7.268;2022-08-19T09:02:22;8.45;;;7.75;;
11078;SDS011;5592;49.234;7.268;2022-08-19T09:04:48;9.02;;;8.23;;
11078;SDS011;5592;49.234;7.268;2022-08-19T09:10:10;8.25;;;7.38;;
11078;SDS011;5592;49.234;7.268;2022-08-19T09:13:26;8.98;;;7.90;;
11078;SDS011;5592;49.234;7.268;2022-08-19T09:15:34;9.57;;;8.57;;
11078;SDS011;5592;49.234;7.268;2022-08-19T09:18:05;8.60;;;7.90;;
11078;SDS011;5592;49.234;7.268;2022-08-19T09:20:33;8.88;;;8.07;;
11078;SDS011;5592;49.234;7.268;2022-08-19T09:22:59;7.72;;;7.05;;
11078;SDS011;5592;49.234;7.268;2022-08-19T09:25:24;7.65;;;6.95;;
11078;SDS011;5592;49.234;7.268;2022-08-19T09:27:51;7.30;;;6.60;;
11078;SDS011;5592;49.234;7.268;2022-08-19T09:30:23;7.85;;;7.10;;
11078;SDS011;5592;49.234;7.268;2022-08-19T09:32:51;7.45;;;6.72;;
11078;SDS011;5592;49.234;7.268;2022-08-19T09:35:18;7.65;;;7.05;;
11078;SDS011;5592;49.234;7.268;2022-08-19T09:37:48;6.93;;;6.32;;
11078;SDS011;5592;49.234;7.268;2022-08-19T09:40:15;7.25;;;6.57;;
11078;SDS011;5592;49.234;7.268;2022-08-19T09:42:42;9.15;;;6.40;;
11078;SDS011;5592;49.234;7.268;2022-08-19T09:45:12;5.97;;;5.28;;
11078;SDS011;5592;49.234;7.268;2022-08-19T09:47:42;7.05;;;6.45;;
11078;SDS011;5592;49.234;7.268;2022-08-19T09:50:09;9.65;;;6.35;;
11078;SDS011;5592;49.234;7.268;2022-08-19T09:52:36;6.38;;;5.88;;
11078;SDS011;5592;49.234;7.268;2022-08-19T09:55:05;7.60;;;5.72;;
11078;SDS011;5592;49.234;7.268;2022-08-19T09:57:32;6.70;;;5.70;;
11078;SDS011;5592;49.234;7.268;2022-08-19T09:59:58;6.00;;;5.50;;
11078;SDS011;5592;49.234;7.268;2022-08-19T10:02:24;5.53;;;5.03;;
11078;SDS011;5592;49.234;7.268;2022-08-19T10:04:50;6.45;;;5.88;;
11078;SDS011;5592;49.234;7.268;2022-08-19T10:07:34;6.88;;;4.90;;
11078;SDS011;5592;49.234;7.268;2022-08-19T10:10:01;5.40;;;4.88;;
11078;SDS011;5592;49.234;7.268;2022-08-19T10:12:28;6.70;;;5.85;;
11078;SDS011;5592;49.234;7.268;2022-08-19T10:14:54;7.00;;;5.10;;
11078;SDS011;5592;49.234;7.268;2022-08-19T10:17:21;5.70;;;5.20;;
11078;SDS011;5592;49.234;7.268;2022-08-19T10:19:47;5.40;;;5.00;;
11078;SDS011;5592;49.234;7.268;2022-08-19T10:22:12;6.20;;;5.60;;
11078;SDS011;5592;49.234;7.268;2022-08-19T10:24:38;7.30;;;5.30;;
11078;SDS011;5592;49.234;7.268;2022-08-19T10:27:04;5.57;;;5.07;;
11078;SDS011;5592;49.234;7.268;2022-08-19T10:29:30;6.40;;;5.60;;
11078;SDS011;5592;49.234;7.268;2022-08-19T10:31:59;5.43;;;5.03;;
11078;SDS011;5592;49.234;7.268;2022-08-19T10:34:26;6.80;;;5.00;;
11078;SDS011;5592;49.234;7.268;2022-08-19T10:36:53;5.73;;;5.23;;
11078;SDS011;5592;49.234;7.268;2022-08-19T10:39:18;6.23;;;5.63;;
11078;SDS011;5592;49.234;7.268;2022-08-19T10:41:44;5.20;;;4.30;;
11078;SDS011;5592;49.234;7.268;2022-08-19T10:44:10;5.60;;;5.10;;
11078;SDS011;5592;49.234;7.268;2022-08-19T10:46:39;4.72;;;4.22;;
11078;SDS011;5592;49.234;7.268;2022-08-19T10:49:07;4.53;;;4.22;;
11078;SDS011;5592;49.234;7.268;2022-08-19T10:51:33;5.13;;;4.63;;
11078;SDS011;5592;49.234;7.268;2022-08-19T10:54:18;4.17;;;3.80;;
11078;SDS011;5592;49.234;7.268;2022-08-19T10:56:44;6.57;;;4.30;;
11078;SDS011;5592;49.234;7.268;2022-08-19T10:59:16;4.93;;;4.43;;
11078;SDS011;5592;49.234;7.268;2022-08-19T11:01:54;6.63;;;4.27;;
11078;SDS011;5592;49.234;7.268;2022-08-19T11:04:24;4.83;;;4.43;;
11078;SDS011;5592;49.234;7.268;2022-08-19T11:06:49;4.67;;;4.20;;
11078;SDS011;5592;49.234;7.268;2022-08-19T11:09:16;4.87;;;4.47;;
11078;SDS011;5592;49.234;7.268;2022-08-19T11:11:43;5.43;;;4.97;;
11078;SDS011;5592;49.234;7.268;2022-08-19T11:14:11;6.30;;;5.70;;
11078;SDS011;5592;49.234;7.268;2022-08-19T11:16:39;7.07;;;4.50;;
11078;SDS011;5592;49.234;7.268;2022-08-19T11:19:06;5.37;;;4.87;;
11078;SDS011;5592;49.234;7.268;2022-08-19T11:21:38;5.37;;;4.97;;
11078;SDS011;5592;49.234;7.268;2022-08-19T11:24:07;5.93;;;5.00;;
11078;SDS011;5592;49.234;7.268;2022-08-19T11:26:38;5.20;;;4.77;;
11078;SDS011;5592;49.234;7.268;2022-08-19T11:29:05;5.30;;;4.80;;
11078;SDS011;5592;49.234;7.268;2022-08-19T11:31:36;5.97;;;5.13;;
11078;SDS011;5592;49.234;7.268;2022-08-19T11:34:05;5.03;;;4.57;;
11078;SDS011;5592;49.234;7.268;2022-08-19T11:36:32;6.93;;;5.50;;
11078;SDS011;5592;49.234;7.268;2022-08-19T11:38:59;5.50;;;4.60;;
11078;SDS011;5592;49.234;7.268;2022-08-19T11:41:26;5.23;;;4.73;;
11078;SDS011;5592;49.234;7.268;2022-08-19T11:43:52;5.80;;;5.20;;
11078;SDS011;5592;49.234;7.268;2022-08-19T11:46:20;5.57;;;4.83;;
11078;SDS011;5592;49.234;7.268;2022-08-19T11:48:47;5.33;;;4.27;;
11078;SDS011;5592;49.234;7.268;2022-08-19T11:51:15;7.10;;;5.30;;
11078;SDS011;5592;49.234;7.268;2022-08-19T11:53:44;5.83;;;4.50;;
11078;SDS011;5592;49.234;7.268;2022-08-19T11:56:13;4.47;;;4.07;;
11078;SDS011;5592;49.234;7.268;2022-08-19T11:58:38;4.63;;;4.23;;
11078;SDS011;5592;49.234;7.268;2022-08-19T12:01:07;4.30;;;3.90;;
11078;SDS011;5592;49.234;7.268;2022-08-19T12:03:34;5.40;;;4.83;;
11078;SDS011;5592;49.234;7.268;2022-08-19T12:06:04;5.00;;;4.00;;
11078;SDS011;5592;49.234;7.268;2022-08-19T12:08:31;5.97;;;4.50;;
11078;SDS011;5592;49.234;7.268;2022-08-19T12:10:57;5.07;;;4.10;;
11078;SDS011;5592;49.234;7.268;2022-08-19T12:13:22;4.83;;;4.20;;
11078;SDS011;5592;49.234;7.268;2022-08-19T12:15:49;4.70;;;4.30;;
11078;SDS011;5592;49.234;7.268;2022-08-19T12:18:15;7.20;;;4.40;;
11078;SDS011;5592;49.234;7.268;2022-08-19T12:20:41;4.60;;;4.20;;
11078;SDS011;5592;49.234;7.268;2022-08-19T12:23:08;5.37;;;4.87;;
11078;SDS011;5592;49.234;7.268;2022-08-19T12:25:35;3.80;;;3.50;;
11078;SDS011;5592;49.234;7.268;2022-08-19T12:28:01;5.30;;;3.97;;
11078;SDS011;5592;49.234;7.268;2022-08-19T12:30:27;4.03;;;3.73;;
11078;SDS011;5592;49.234;7.268;2022-08-19T12:32:53;3.93;;;3.53;;
11078;SDS011;5592;49.234;7.268;2022-08-19T12:35:19;3.90;;;3.50;;
11078;SDS011;5592;49.234;7.268;2022-08-19T12:37:46;5.70;;;3.87;;
11078;SDS011;5592;49.234;7.268;2022-08-19T12:40:14;5.37;;;3.30;;
11078;SDS011;5592;49.234;7.268;2022-08-19T12:42:40;3.10;;;2.90;;
11078;SDS011;5592;49.234;7.268;2022-08-19T12:45:07;4.90;;;3.30;;
11078;SDS011;5592;49.234;7.268;2022-08-19T12:47:35;4.40;;;3.13;;
11078;SDS011;5592;49.234;7.268;2022-08-19T12:50:01;3.60;;;3.30;;
11078;SDS011;5592;49.234;7.268;2022-08-19T12:52:27;5.27;;;3.60;;
11078;SDS011;5592;49.234;7.268;2022-08-19T12:54:53;5.47;;;3.93;;
11078;SDS011;5592;49.234;7.268;2022-08-19T12:57:21;3.67;;;3.37;;
11078;SDS011;5592;49.234;7.268;2022-08-19T12:59:51;5.93;;;5.43;;
11078;SDS011;5592;49.234;7.268;2022-08-19T13:02:20;7.20;;;6.50;;
11078;SDS011;5592;49.234;7.268;2022-08-19T13:04:47;10.77;;;7.50;;
11078;SDS011;5592;49.234;7.268;2022-08-19T13:07:12;8.40;;;7.60;;
11078;SDS011;5592;49.234;7.268;2022-08-19T13:09:39;7.40;;;6.67;;
11078;SDS011;5592;49.234;7.268;2022-08-19T13:12:07;7.60;;;6.57;;
11078;SDS011;5592;49.234;7.268;2022-08-19T13:14:37;9.33;;;6.97;;
11078;SDS011;5592;49.234;7.268;2022-08-19T13:17:05;8.70;;;7.90;;
11078;SDS011;5592;49.234;7.268;2022-08-19T13:19:31;10.50;;;8.20;;
11078;SDS011;5592;49.234;7.268;2022-08-19T13:21:57;8.83;;;7.93;;
11078;SDS011;5592;49.234;7.268;2022-08-19T13:24:23;11.77;;;9.40;;
11078;SDS011;5592;49.234;7.268;2022-08-19T13:26:49;9.97;;;8.90;;
11078;SDS011;5592;49.234;7.268;2022-08-19T13:29:15;10.23;;;8.90;;
11078;SDS011;5592;49.234;7.268;2022-08-19T13:31:59;12.93;;;8.27;;
11078;SDS011;5592;49.234;7.268;2022-08-19T13:34:43;8.07;;;7.47;;
11078;SDS011;5592;49.234;7.268;2022-08-19T13:37:11;9.97;;;8.30;;
11078;SDS011;5592;49.234;7.268;2022-08-19T13:39:37;9.83;;;8.83;;
11078;SDS011;5592;49.234;7.268;2022-08-19T13:42:02;8.97;;;8.10;;
11078;SDS011;5592;49.234;7.268;2022-08-19T13:44:29;11.57;;;8.83;;
11078;SDS011;5592;49.234;7.268;2022-08-19T13:47:02;10.23;;;8.20;;
11078;SDS011;5592;49.234;7.268;2022-08-19T13:49:31;8.70;;;7.83;;
11078;SDS011;5592;49.234;7.268;2022-08-19T13:51:57;16.93;;;7.90;;
11078;SDS011;5592;49.234;7.268;2022-08-19T13:54:23;11.73;;;7.40;;
11078;SDS011;5592;49.234;7.268;2022-08-19T13:56:48;7.80;;;7.10;;
11078;SDS011;5592;49.234;7.268;2022-08-19T13:59:14;12.50;;;7.70;;
11078;SDS011;5592;49.234;7.268;2022-08-19T14:01:40;9.43;;;6.80;;
11078;SDS011;5592;49.234;7.268;2022-08-19T14:04:06;17.57;;;7.90;;
11078;SDS011;5592;49.234;7.268;2022-08-19T14:06:32;8.30;;;7.50;;
11078;SDS011;5592;49.234;7.268;2022-08-19T14:08:59;8.53;;;7.73;;
11078;SDS011;5592;49.234;7.268;2022-08-19T14:11:26;8.00;;;7.23;;
11078;SDS011;5592;49.234;7.268;2022-08-19T14:13:52;8.30;;;7.50;;
11078;SDS011;5592;49.234;7.268;2022-08-19T14:16:18;9.00;;;7.47;;
11078;SDS011;5592;49.234;7.268;2022-08-19T14:18:44;10.93;;;7.63;;
11078;SDS011;5592;49.234;7.268;2022-08-19T14:21:17;7.47;;;6.73;;
11078;SDS011;5592;49.234;7.268;2022-08-19T14:23:47;7.80;;;7.00;;
11078;SDS011;5592;49.234;7.268;2022-08-19T14:26:14;9.63;;;7.07;;
11078;SDS011;5592;49.234;7.268;2022-08-19T14:28:42;8.33;;;6.40;;
11078;SDS011;5592;49.234;7.268;2022-08-19T14:31:09;12.93;;;6.53;;
11078;SDS011;5592;49.234;7.268;2022-08-19T14:33:36;8.73;;;6.50;;
11078;SDS011;5592;49.234;7.268;2022-08-19T14:36:02;9.33;;;6.27;;
11078;SDS011;5592;49.234;7.268;2022-08-19T14:38:28;7.53;;;6.83;;
11078;SDS011;5592;49.234;7.268;2022-08-19T14:41:04;6.20;;;5.60;;
11078;SDS011;5592;49.234;7.268;2022-08-19T14:43:41;6.73;;;6.13;;
11078;SDS011;5592;49.234;7.268;2022-08-19T14:46:07;8.87;;;5.30;;
11078;SDS011;5592;49.234;7.268;2022-08-19T14:48:35;9.50;;;5.20;;
11078;SDS011;5592;49.234;7.268;2022-08-19T14:51:03;6.20;;;5.60;;
11078;SDS011;5592;49.234;7.268;2022-08-19T14:53:29;14.00;;;5.13;;
11078;SDS011;5592;49.234;7.268;2022-08-19T14:55:55;5.97;;;5.47;;
11078;SDS011;5592;49.234;7.268;2022-08-19T14:58:20;6.10;;;5.50;;
11078;SDS011;5592;49.234;7.268;2022-08-19T15:00:47;7.97;;;5.00;;
11078;SDS011;5592;49.234;7.268;2022-08-19T15:03:13;5.70;;;5.20;;
11078;SDS011;5592;49.234;7.268;2022-08-19T15:05:38;5.23;;;4.70;;
11078;SDS011;5592;49.234;7.268;2022-08-19T15:08:04;4.83;;;4.40;;